VKG1604 ENGM-LGKO
Flight info
| Callsign | VKG1604 |
|---|---|
| Flight time | N/A |
| Altitude | 35000 |
| Route | OKSAT L996 GETPA L727 NEGIL DCT RUMAR DCT KELEL DCT VERIG DCT OVDOT DCT NIKTI DCT MES UN139 LURUS UL995 KOPAR |
| Aircraft | A321/M-SDE2E3FGHIJ1RWXYZ/LB2 |
Departure
| Time | N/A |
|---|---|
| Airport | Oslo-Gardermoen International Airport (ENGM) |
Arrival
| Time | 2026-05-08 21:53 |
|---|---|
| Airport | Kos International Airport "Ippokratis" (LGKO) |
| Time | Latitude | Longitude | Altitude | Speed | Heading |
|---|---|---|---|---|---|
| 2026-05-08 21:53 | 36.79428 | 27.09145 | 423 ft | 24 kts | 328° |
| 2026-05-08 21:53 | 36.79568 | 27.09038 | 423 ft | 23 kts | 328° |
| 2026-05-08 21:54 | 36.79668 | 27.08991 | 420 ft | 10 kts | 358° |
| 2026-05-08 21:54 | 36.79724 | 27.08988 | 425 ft | 4 kts | 358° |
| 2026-05-08 21:54 | 36.79736 | 27.08988 | 428 ft | 0 kts | 358° |
| 2026-05-08 21:54 | 36.79738 | 27.08988 | 428 ft | 0 kts | 358° |
| 2026-05-08 21:55 | 36.79739 | 27.08988 | 428 ft | 0 kts | 358° |
| 2026-05-08 21:57 | 36.79752 | 27.08987 | 418 ft | 4 kts | 358° |
| 2026-05-08 21:57 | 36.79792 | 27.08985 | 419 ft | 8 kts | 357° |
| 2026-05-08 21:57 | 36.79860 | 27.08981 | 426 ft | 11 kts | 356° |
| 2026-05-08 21:57 | 36.79950 | 27.08971 | 420 ft | 15 kts | 349° |
| 2026-05-08 21:58 | 36.80035 | 27.08912 | 419 ft | 9 kts | 348° |
| 2026-05-08 21:58 | 36.80053 | 27.08943 | 418 ft | 4 kts | 76° |
| 2026-05-08 21:58 | 36.80052 | 27.08964 | 428 ft | 1 kts | 97° |
| 2026-05-08 21:58 | 36.80053 | 27.08970 | 428 ft | 0 kts | 90° |
| 2026-05-08 21:59 | 36.80053 | 27.08974 | 421 ft | 1 kts | 89° |
| 2026-05-08 21:59 | 36.80053 | 27.08980 | 421 ft | 0 kts | 90° |
| 2026-05-08 21:59 | 36.80053 | 27.08982 | 421 ft | 0 kts | 89° |
| 2026-05-08 21:59 | 36.80053 | 27.08985 | 421 ft | 2 kts | 89° |
| 2026-05-08 22:00 | 36.80053 | 27.08987 | 428 ft | 0 kts | 89° |